Route Details

Aircraft Information
Group: Large Widebodies
Types: B744, MD11
Route Data
Distance: 3599nm
Duration: 8h 00m
Origin METAR: KMIA 072253Z COR 09013G17KT 10SM SCT040 SCT250 23/14 A3022 RMK AO2 SLP232 T02330144 $
Dest. METAR: SCEL 072300Z 21012KT 8000 NSC 28/11 Q1010 NOSIG
Freight Data
(for Feb 7, 2023)
Load Factor:
98%
Manifested Cargo: 195,638lbs
Financial History
Total Freight: 702,251lbs
Average Load: 0lbs/flt
Fuel Used: 607,477lbs
Avg. Fuel Used: 0lbs/flt
Fuel Expense: $654,112
Avg. Fuel Expense: $0
Avg. Fuel Cost: $0/lbs
Total Gross Income: $2,053,020
Pilot Pay: $1,225
Total Expenses: $303,294
Total Revenue: $1,082,903
Average Revenue: $0

Capitol Logistics 759




KMIA
Miami International Airport
Miami, Florida
SCEL
Arturo Merino Benitez International Airport
Santiago,